Time;durP1;ratioP1;P1;durP2;ratioP2;P2;SDS_P1;SDS_P2;PMS_P1;PMS_P2;Temp;Humidity;BMP_temperature;BMP_pressure;BME280_temperature;BME280_humidity;BME280_pressure;Samples;Min_cycle;Max_cycle;Signal;HPM_P1;HPM_P2
2021/11/29 05:02:34;;;;;;;37.83;17.08;;;3.00;99.90;;;;;;5025973;23;20313;-68
2021/11/29 05:05:01;;;;;;;36.40;16.02;;;3.00;99.90;;;;;;5009792;28;20293;-67
2021/11/29 05:07:28;;;;;;;36.20;16.88;;;2.90;99.90;;;;;;5014259;28;20532;-68
2021/11/29 05:09:54;;;;;;;36.80;18.00;;;2.90;99.90;;;;;;5014570;28;20269;-68
2021/11/29 05:12:21;;;;;;;36.60;17.33;;;2.90;99.90;;;;;;4996697;28;20231;-68
2021/11/29 05:14:49;;;;;;;33.42;17.70;;;2.90;99.90;;;;;;4995361;28;20211;-68
2021/11/29 05:17:17;;;;;;;29.60;16.55;;;2.90;99.90;;;;;;4994781;28;20224;-67
2021/11/29 05:19:45;;;;;;;30.15;15.73;;;2.90;99.90;;;;;;4993715;28;20264;-68
2021/11/29 05:22:12;;;;;;;36.88;17.42;;;2.90;99.90;;;;;;4994434;28;20662;-69
2021/11/29 05:24:40;;;;;;;32.38;16.40;;;2.90;99.90;;;;;;4994931;28;20216;-68
2021/11/29 05:27:07;;;;;;;33.33;16.55;;;2.90;99.90;;;;;;4994892;28;20208;-69
2021/11/29 05:29:34;;;;;;;29.45;16.33;;;2.90;99.90;;;;;;4994278;28;20214;-68
2021/11/29 05:32:01;;;;;;;37.60;14.93;;;2.90;99.90;;;;;;4994500;28;20232;-69
2021/11/29 05:34:28;;;;;;;31.45;16.20;;;2.90;99.90;;;;;;4993552;28;20231;-69
2021/11/29 05:36:56;;;;;;;26.65;14.65;;;2.90;99.90;;;;;;4994754;28;20223;-68
2021/11/29 05:39:22;;;;;;;25.75;12.88;;;2.90;99.90;;;;;;4994615;28;20212;-68
2021/11/29 05:41:49;;;;;;;31.77;15.10;;;2.90;99.90;;;;;;4986713;28;20232;-69
2021/11/29 05:44:17;;;;;;;28.27;14.75;;;2.80;99.90;;;;;;4994189;28;20203;-68
2021/11/29 05:46:45;;;;;;;33.75;15.82;;;2.80;99.90;;;;;;4994278;28;20279;-68
2021/11/29 05:49:12;;;;;;;35.10;14.32;;;2.80;99.90;;;;;;4993979;28;20212;-68
2021/11/29 05:51:38;;;;;;;31.13;15.07;;;2.80;99.90;;;;;;4993509;28;20236;-67
2021/11/29 05:54:06;;;;;;;29.50;14.93;;;2.80;99.90;;;;;;4994459;28;20223;-68
2021/11/29 05:56:33;;;;;;;28.95;14.40;;;2.70;99.90;;;;;;4993860;28;20555;-67
2021/11/29 05:59:00;;;;;;;33.53;13.80;;;2.70;99.90;;;;;;4994015;28;20590;-68
2021/11/29 06:01:26;;;;;;;26.88;12.23;;;2.70;99.90;;;;;;4993591;28;20240;-68
2021/11/29 06:03:53;;;;;;;28.52;14.63;;;2.70;99.90;;;;;;4993907;28;20204;-68
2021/11/29 06:06:20;;;;;;;27.02;14.00;;;2.60;99.90;;;;;;4993750;28;20215;-67
2021/11/29 06:08:47;;;;;;;24.45;13.38;;;2.60;99.90;;;;;;4994342;28;20568;-67
2021/11/29 06:11:15;;;;;;;36.97;14.55;;;2.60;99.90;;;;;;4993879;28;20228;-68
2021/11/29 06:13:41;;;;;;;27.17;17.20;;;2.50;99.90;;;;;;4994157;28;20247;-69
2021/11/29 06:16:09;;;;;;;26.25;14.10;;;2.50;99.90;;;;;;4993596;28;20270;-69
2021/11/29 06:18:36;;;;;;;28.33;14.38;;;2.50;99.90;;;;;;4993803;28;20235;-70
2021/11/29 06:21:03;;;;;;;34.58;14.52;;;2.50;99.90;;;;;;4992724;28;20298;-71
2021/11/29 06:23:32;;;;;;;33.33;15.32;;;2.50;99.90;;;;;;4993855;28;20307;-70
2021/11/29 06:25:58;;;;;;;37.05;15.88;;;2.50;99.90;;;;;;4993882;28;20298;-69
2021/11/29 06:28:27;;;;;;;40.90;18.40;;;2.50;99.90;;;;;;4993766;28;20212;-70
2021/11/29 06:30:54;;;;;;;34.63;16.55;;;2.50;99.90;;;;;;4994476;28;20270;-70
2021/11/29 06:33:21;;;;;;;40.95;17.27;;;2.50;99.90;;;;;;4993675;28;20203;-68
2021/11/29 06:35:47;;;;;;;36.20;16.65;;;2.50;99.90;;;;;;4992667;28;20295;-69
2021/11/29 06:38:14;;;;;;;37.13;15.73;;;2.50;99.90;;;;;;4993483;28;20582;-69
2021/11/29 06:40:47;;;;;;;32.83;14.95;;;2.50;99.90;;;;;;4992890;28;20235;-68
2021/11/29 06:43:14;;;;;;;33.15;16.20;;;2.50;99.90;;;;;;4993457;28;20204;-69
2021/11/29 06:45:42;;;;;;;39.13;17.65;;;2.50;99.90;;;;;;4993487;28;20212;-69
2021/11/29 06:48:09;;;;;;;33.70;14.63;;;2.50;99.90;;;;;;4993267;28;20649;-69
2021/11/29 06:50:35;;;;;;;30.88;13.38;;;2.50;99.90;;;;;;4992317;28;20231;-69
2021/11/29 06:53:03;;;;;;;27.08;13.52;;;2.50;99.90;;;;;;4993289;28;20211;-69
2021/11/29 06:55:32;;;;;;;31.60;14.98;;;2.50;99.90;;;;;;4993083;28;20208;-68
2021/11/29 06:57:58;;;;;;;27.95;14.05;;;2.50;99.90;;;;;;4992964;28;20228;-69
2021/11/29 07:00:25;;;;;;;33.03;17.00;;;2.50;99.90;;;;;;4993891;28;20234;-69
2021/11/29 07:02:54;;;;;;;26.65;13.82;;;2.60;99.90;;;;;;4992899;28;20208;-69
2021/11/29 07:05:22;;;;;;;30.38;16.02;;;2.60;99.90;;;;;;4993188;28;20409;-69
2021/11/29 07:07:51;;;;;;;33.47;14.65;;;2.60;99.90;;;;;;4992946;28;20299;-69
2021/11/29 07:10:18;;;;;;;31.30;14.70;;;2.60;99.90;;;;;;4992586;28;20207;-70
2021/11/29 07:12:45;;;;;;;33.00;15.35;;;2.60;99.90;;;;;;4993214;28;20208;-69
2021/11/29 07:15:13;;;;;;;32.28;14.60;;;2.50;99.90;;;;;;4992976;28;20207;-70
2021/11/29 07:17:40;;;;;;;35.05;15.35;;;2.50;99.90;;;;;;4992856;28;20231;-69
2021/11/29 07:20:10;;;;;;;28.50;15.23;;;2.50;99.90;;;;;;4984751;28;20204;-69
2021/11/29 07:22:37;;;;;;;29.20;13.45;;;2.50;99.90;;;;;;4992783;28;20208;-70
2021/11/29 07:25:05;;;;;;;26.38;13.13;;;2.50;99.90;;;;;;4992465;28;20208;-69
2021/11/29 07:27:33;;;;;;;25.33;15.18;;;2.50;99.90;;;;;;4992824;28;20456;-70
2021/11/29 07:30:01;;;;;;;25.25;13.07;;;2.50;99.90;;;;;;4992410;28;20483;-69
2021/11/29 07:32:29;;;;;;;25.35;13.98;;;2.50;99.90;;;;;;4994415;28;20616;-70
2021/11/29 07:34:56;;;;;;;21.60;15.80;;;2.60;99.90;;;;;;4992966;28;20215;-70
2021/11/29 07:37:24;;;;;;;30.50;15.95;;;2.60;99.90;;;;;;4993958;28;20259;-70
2021/11/29 07:39:52;;;;;;;29.40;15.65;;;2.60;99.90;;;;;;4994417;28;20212;-70
2021/11/29 07:42:19;;;;;;;23.50;12.73;;;2.60;99.90;;;;;;4993538;28;20228;-69
2021/11/29 07:44:46;;;;;;;22.65;12.98;;;2.60;99.90;;;;;;4992478;28;20212;-70
2021/11/29 07:47:13;;;;;;;27.70;14.48;;;2.60;99.90;;;;;;4992426;28;20215;-70
2021/11/29 07:49:40;;;;;;;20.95;13.35;;;2.60;99.90;;;;;;4991605;28;20577;-69
2021/11/29 07:52:07;;;;;;;27.70;14.45;;;2.60;99.90;;;;;;4992245;28;20231;-69
2021/11/29 07:54:36;;;;;;;24.42;13.27;;;2.60;99.90;;;;;;4991864;28;20254;-69
2021/11/29 07:57:02;;;;;;;26.23;13.52;;;2.60;99.90;;;;;;4991822;28;20219;-69
2021/11/29 07:59:29;;;;;;;28.17;13.30;;;2.60;99.90;;;;;;4991734;28;20266;-69
2021/11/29 08:01:58;;;;;;;24.15;13.30;;;2.60;99.90;;;;;;4991439;28;20242;-70
2021/11/29 08:04:25;;;;;;;24.33;14.10;;;2.60;99.90;;;;;;4991024;28;20208;-70
2021/11/29 08:06:52;;;;;;;29.48;14.50;;;2.60;99.90;;;;;;4991716;28;20211;-70
2021/11/29 08:09:18;;;;;;;21.27;12.27;;;2.70;99.90;;;;;;4987052;28;20204;-69
2021/11/29 08:11:46;;;;;;;26.70;12.45;;;2.60;99.90;;;;;;4991764;28;20231;-69
2021/11/29 08:14:13;;;;;;;22.75;12.30;;;2.60;99.90;;;;;;4991896;28;20255;-69
2021/11/29 08:16:40;;;;;;;18.05;12.43;;;2.60;99.90;;;;;;4991354;28;20207;-70
2021/11/29 08:19:06;;;;;;;27.88;13.85;;;2.60;99.90;;;;;;4990939;28;20235;-69
2021/11/29 08:21:33;;;;;;;25.50;14.30;;;2.70;99.90;;;;;;4991056;28;20227;-69
2021/11/29 08:24:00;;;;;;;23.05;12.90;;;2.70;99.90;;;;;;4991631;28;20552;-70
2021/11/29 08:26:28;;;;;;;25.02;12.35;;;2.70;99.90;;;;;;4991807;28;20591;-70
2021/11/29 08:28:56;;;;;;;24.17;13.05;;;2.70;99.90;;;;;;4991539;28;20533;-68
2021/11/29 08:31:23;;;;;;;24.42;14.27;;;2.70;99.90;;;;;;4991124;28;20246;-69
2021/11/29 08:33:50;;;;;;;27.25;14.02;;;2.60;99.90;;;;;;4991525;28;20653;-69
2021/11/29 08:36:17;;;;;;;31.48;14.32;;;2.70;99.90;;;;;;4991604;28;20208;-70
2021/11/29 08:38:43;;;;;;;29.80;13.95;;;2.70;99.90;;;;;;4991703;28;20227;-69
2021/11/29 08:41:10;;;;;;;23.92;13.40;;;2.60;99.90;;;;;;4991115;28;20273;-70
2021/11/29 08:43:38;;;;;;;26.85;13.50;;;2.70;99.90;;;;;;4991617;28;20234;-69
2021/11/29 08:46:06;;;;;;;28.85;13.65;;;2.70;99.90;;;;;;4991313;28;20211;-69
2021/11/29 08:48:33;;;;;;;22.88;12.50;;;2.80;99.90;;;;;;4991973;28;20204;-70
2021/11/29 08:51:00;;;;;;;25.02;12.73;;;2.70;99.90;;;;;;4990533;28;20244;-70
2021/11/29 08:53:27;;;;;;;24.83;13.60;;;2.70;99.90;;;;;;4991818;28;20212;-69
2021/11/29 08:55:56;;;;;;;26.98;13.05;;;2.70;99.90;;;;;;4991198;28;20270;-69
2021/11/29 08:58:24;;;;;;;31.77;13.88;;;2.70;99.90;;;;;;4988890;28;20240;-70
2021/11/29 09:00:54;;;;;;;23.45;13.18;;;2.70;99.90;;;;;;4990414;28;20290;-70
2021/11/29 09:03:23;;;;;;;29.40;12.90;;;2.70;99.90;;;;;;4991671;28;20207;-69
2021/11/29 09:05:50;;;;;;;27.23;14.35;;;2.80;99.90;;;;;;4990501;28;20214;-69
2021/11/29 09:08:18;;;;;;;25.83;14.35;;;2.80;99.90;;;;;;4991238;28;20207;-69
2021/11/29 09:10:46;;;;;;;30.27;16.27;;;2.90;99.90;;;;;;4990618;28;20228;-69
2021/11/29 09:13:14;;;;;;;41.03;14.88;;;2.90;99.90;;;;;;4990948;28;20212;-70
2021/11/29 09:15:42;;;;;;;28.83;15.13;;;2.90;99.90;;;;;;4990949;28;20657;-69
2021/11/29 09:18:09;;;;;;;27.10;14.57;;;2.90;99.90;;;;;;4991254;28;20246;-70
2021/11/29 09:20:39;;;;;;;37.17;16.50;;;2.90;99.90;;;;;;4990098;28;20228;-69
2021/11/29 09:23:06;;;;;;;32.20;16.90;;;2.90;99.90;;;;;;4991202;28;20553;-69
2021/11/29 09:25:33;;;;;;;30.48;16.58;;;2.90;99.90;;;;;;4991104;28;20215;-69
2021/11/29 09:28:00;;;;;;;39.05;17.92;;;2.90;99.90;;;;;;4991098;28;20648;-70
2021/11/29 09:30:27;;;;;;;37.05;16.92;;;2.90;99.90;;;;;;4990956;28;20208;-69
2021/11/29 09:32:54;;;;;;;36.05;18.10;;;3.00;99.90;;;;;;4991253;28;20633;-70
2021/11/29 09:35:21;;;;;;;36.58;19.20;;;3.00;99.90;;;;;;4990407;28;20687;-69
2021/11/29 09:37:51;;;;;;;37.75;18.35;;;3.00;99.90;;;;;;4991007;28;20351;-70
2021/11/29 09:40:20;;;;;;;31.33;17.48;;;3.00;99.90;;;;;;4990684;28;20211;-69
2021/11/29 09:42:47;;;;;;;38.60;19.25;;;3.10;99.90;;;;;;4991278;28;20561;-70
2021/11/29 09:45:15;;;;;;;29.33;18.27;;;3.10;99.90;;;;;;4990956;28;20685;-69
2021/11/29 09:47:42;;;;;;;29.88;16.50;;;3.10;99.90;;;;;;4990660;28;20216;-69
2021/11/29 09:50:10;;;;;;;34.97;18.98;;;3.10;99.90;;;;;;4989675;28;20227;-70
2021/11/29 09:52:37;;;;;;;31.50;18.55;;;3.20;99.90;;;;;;4992743;28;20239;-70
2021/11/29 09:55:09;;;;;;;36.45;19.00;;;3.20;99.90;;;;;;4993841;28;20656;-69
2021/11/29 09:57:39;;;;;;;38.75;17.80;;;3.20;99.90;;;;;;4994246;28;20278;-68
2021/11/29 10:00:08;;;;;;;39.13;17.10;;;3.20;99.90;;;;;;4993641;28;20208;-69
2021/11/29 10:02:34;;;;;;;35.17;19.75;;;3.20;99.90;;;;;;4993882;28;20243;-68
2021/11/29 10:05:01;;;;;;;34.75;17.90;;;3.20;99.90;;;;;;4993126;28;20258;-68
2021/11/29 10:07:29;;;;;;;41.00;18.20;;;3.20;99.90;;;;;;4993962;28;20211;-68
2021/11/29 10:09:57;;;;;;;34.67;19.20;;;3.30;99.90;;;;;;4993545;28;20211;-68
2021/11/29 10:12:28;;;;;;;34.70;19.10;;;3.30;99.90;;;;;;4993853;28;20290;-68
2021/11/29 10:15:16;;;;;;;27.70;15.82;;;3.30;99.90;;;;;;4993739;28;20227;-68
2021/11/29 10:17:44;;;;;;;32.88;17.83;;;3.40;99.90;;;;;;4993591;28;20302;-68
2021/11/29 10:20:11;;;;;;;35.55;17.65;;;3.40;99.90;;;;;;4985125;28;20283;-68
2021/11/29 10:22:37;;;;;;;35.28;17.02;;;3.40;99.90;;;;;;4985759;28;20204;-68
2021/11/29 10:25:15;;;;;;;30.50;15.70;;;3.40;99.90;;;;;;4994543;28;20230;-69
2021/11/29 10:27:45;;;;;;;34.90;17.80;;;3.40;99.90;;;;;;4994065;28;20270;-68
2021/11/29 10:30:16;;;;;;;31.48;16.70;;;3.40;99.90;;;;;;4993667;28;20208;-68
2021/11/29 10:32:45;;;;;;;30.42;17.25;;;3.50;99.90;;;;;;4993837;28;20219;-69
2021/11/29 10:35:14;;;;;;;33.97;17.83;;;3.50;99.90;;;;;;4992697;28;20208;-69
2021/11/29 10:37:44;;;;;;;35.75;16.38;;;3.60;99.90;;;;;;4993438;28;20211;-69
2021/11/29 10:40:16;;;;;;;29.90;16.90;;;3.60;99.90;;;;;;4993502;28;20236;-69
2021/11/29 10:42:44;;;;;;;35.17;17.13;;;3.60;99.90;;;;;;4993370;28;20207;-68
2021/11/29 10:45:20;;;;;;;28.85;16.95;;;3.70;99.90;;;;;;4993400;28;20203;-69
2021/11/29 10:47:49;;;;;;;25.40;16.55;;;3.70;99.90;;;;;;4993507;28;20231;-69
2021/11/29 10:50:16;;;;;;;35.95;18.30;;;3.70;99.90;;;;;;4992151;28;20320;-67
2021/11/29 10:52:46;;;;;;;30.48;16.20;;;3.70;99.90;;;;;;4993691;28;20216;-68
2021/11/29 10:55:13;;;;;;;28.63;15.35;;;3.70;99.90;;;;;;4993312;28;20223;-68
2021/11/29 10:57:49;;;;;;;29.83;16.75;;;3.70;99.90;;;;;;4993255;28;20522;-69
2021/11/29 11:00:17;;;;;;;33.28;15.93;;;3.70;99.90;;;;;;4993126;28;20238;-70
2021/11/29 11:03:03;;;;;;;29.17;16.25;;;3.80;99.90;;;;;;4994079;28;20653;-70
2021/11/29 11:05:29;;;;;;;30.00;17.80;;;3.80;99.90;;;;;;4993640;28;20211;-69
2021/11/29 11:08:10;;;;;;;25.65;16.15;;;3.80;99.90;;;;;;4993131;28;20220;-69
2021/11/29 11:10:36;;;;;;;35.10;18.73;;;3.90;99.90;;;;;;4990698;28;20254;-69
2021/11/29 11:13:05;;;;;;;27.95;17.50;;;3.90;99.90;;;;;;4995917;28;20215;-70
2021/11/29 11:15:43;;;;;;;30.55;16.08;;;4.00;99.90;;;;;;4996510;28;20235;-69
2021/11/29 11:18:11;;;;;;;26.48;16.13;;;4.00;99.90;;;;;;5028539;23;20678;-74
2021/11/29 11:20:39;;;;;;;38.25;16.85;;;4.00;99.90;;;;;;5011138;28;20223;-74
2021/11/29 11:23:06;;;;;;;29.02;16.00;;;4.00;99.90;;;;;;5012500;28;20229;-74
2021/11/29 11:25:35;;;;;;;24.95;16.77;;;4.00;99.90;;;;;;5012199;28;20207;-74
2021/11/29 11:28:05;;;;;;;27.83;14.45;;;4.10;99.90;;;;;;5004003;28;20251;-74
2021/11/29 11:30:35;;;;;;;26.35;15.07;;;4.00;99.90;;;;;;4992197;28;20215;-74
2021/11/29 11:33:06;;;;;;;24.75;15.68;;;4.10;99.90;;;;;;4992416;28;20220;-74
2021/11/29 11:35:35;;;;;;;25.08;13.52;;;4.10;99.90;;;;;;4991707;28;20219;-74
2021/11/29 11:38:04;;;;;;;23.85;14.52;;;4.10;99.90;;;;;;4992505;28;20708;-74
2021/11/29 11:40:34;;;;;;;25.80;14.80;;;4.10;99.90;;;;;;4992106;28;20239;-74
2021/11/29 11:43:04;;;;;;;23.77;14.95;;;4.10;99.90;;;;;;4992454;28;20200;-73
2021/11/29 11:45:34;;;;;;;22.45;13.57;;;4.20;99.90;;;;;;4992222;28;20208;-73
2021/11/29 11:48:02;;;;;;;27.75;16.08;;;4.20;99.90;;;;;;4992112;28;20302;-74
2021/11/29 11:50:33;;;;;;;25.38;15.20;;;4.20;99.90;;;;;;4991228;28;20512;-73
2021/11/29 11:53:00;;;;;;;22.85;14.52;;;4.20;99.90;;;;;;4992224;28;20211;-73
2021/11/29 11:55:32;;;;;;;20.60;12.75;;;4.30;99.90;;;;;;4992155;28;20208;-74
2021/11/29 11:58:01;;;;;;;21.00;14.20;;;4.30;99.90;;;;;;4991990;28;20270;-73
2021/11/29 12:00:30;;;;;;;16.98;12.13;;;4.20;99.90;;;;;;4991692;28;20224;-73
2021/11/29 12:03:08;;;;;;;22.45;13.05;;;4.30;99.90;;;;;;4992234;28;20211;-73
2021/11/29 12:05:37;;;;;;;20.83;12.55;;;4.30;99.90;;;;;;4991255;28;20739;-73
2021/11/29 12:08:25;;;;;;;23.00;12.63;;;4.20;99.90;;;;;;4991850;28;20234;-73
2021/11/29 12:10:52;;;;;;;21.63;12.45;;;4.20;99.90;;;;;;4991464;28;20211;-73
2021/11/29 12:13:20;;;;;;;21.02;12.40;;;4.30;99.90;;;;;;4992261;28;20573;-73
2021/11/29 12:15:49;;;;;;;19.48;12.77;;;4.30;99.90;;;;;;4991403;28;20295;-73
2021/11/29 12:18:46;;;;;;;18.83;11.18;;;4.30;99.90;;;;;;4991598;28;20236;-73
2021/11/29 12:21:17;;;;;;;15.25;10.43;;;4.30;99.90;;;;;;4983162;28;20283;-73
2021/11/29 12:23:50;;;;;;;13.63;10.10;;;4.30;99.90;;;;;;4991652;28;20242;-73
2021/11/29 12:26:18;;;;;;;22.77;11.57;;;4.30;99.90;;;;;;4991817;28;20203;-73
2021/11/29 12:28:46;;;;;;;18.27;11.02;;;4.40;99.90;;;;;;4991527;28;20272;-73
2021/11/29 12:31:36;;;;;;;16.30;9.90;;;4.40;99.90;;;;;;4991046;28;20211;-73
2021/11/29 12:34:08;;;;;;;14.90;11.23;;;4.50;99.90;;;;;;4991279;28;20203;-73
2021/11/29 12:37:12;;;;;;;14.57;9.60;;;4.50;99.90;;;;;;4990947;28;20211;-73
2021/11/29 12:39:50;;;;;;;13.13;9.85;;;4.50;99.90;;;;;;4960829;28;20657;-74
2021/11/29 12:42:51;;;;;;;15.25;10.20;;;4.50;99.90;;;;;;4991412;28;20210;-73
2021/11/29 12:45:21;;;;;;;10.43;8.80;;;4.50;99.90;;;;;;4987240;28;20212;-73
2021/11/29 12:47:51;;;;;;;13.05;8.65;;;4.50;99.90;;;;;;4991171;28;20228;-74
2021/11/29 12:50:35;;;;;;;15.30;8.90;;;4.50;99.90;;;;;;4990576;28;20211;-73
2021/11/29 12:53:15;;;;;;;14.40;8.85;;;4.50;99.90;;;;;;4991550;28;20303;-73
2021/11/29 12:55:43;;;;;;;13.60;8.85;;;4.50;99.90;;;;;;4991479;28;20203;-73
2021/11/29 12:58:26;;;;;;;15.50;9.57;;;4.50;99.90;;;;;;4991022;28;20315;-74
2021/11/29 13:01:11;;;;;;;14.07;10.07;;;4.60;99.90;;;;;;4991080;28;20246;-73
2021/11/29 13:03:43;;;;;;;13.85;9.45;;;4.60;99.90;;;;;;4991199;28;20218;-73
2021/11/29 13:06:11;;;;;;;13.60;9.45;;;4.70;99.90;;;;;;4990448;28;20212;-73
2021/11/29 13:08:40;;;;;;;12.95;10.23;;;4.70;99.90;;;;;;4991014;28;20235;-73
2021/11/29 13:11:09;;;;;;;16.23;10.23;;;4.80;99.90;;;;;;4986787;28;20231;-73
2021/11/29 13:13:55;;;;;;;16.00;11.23;;;4.80;99.90;;;;;;4991245;28;20303;-73
2021/11/29 13:16:38;;;;;;;15.57;11.38;;;4.80;99.90;;;;;;4991218;28;20219;-73
2021/11/29 13:19:11;;;;;;;16.45;11.75;;;4.80;99.90;;;;;;4990768;28;20240;-72
2021/11/29 13:21:42;;;;;;;16.70;11.90;;;4.80;99.90;;;;;;4991073;28;20215;-72
2021/11/29 13:24:25;;;;;;;16.80;11.52;;;4.80;99.90;;;;;;4991414;28;20212;-72
2021/11/29 13:26:56;;;;;;;18.25;12.60;;;4.80;99.90;;;;;;4991987;28;20295;-71
2021/11/29 13:29:26;;;;;;;18.45;12.20;;;4.70;99.90;;;;;;4995265;28;20228;-72
2021/11/29 13:31:54;;;;;;;18.38;12.63;;;4.80;99.90;;;;;;4994851;28;20532;-72
2021/11/29 13:34:25;;;;;;;14.40;10.32;;;4.70;99.90;;;;;;4994389;28;20204;-72
2021/11/29 13:36:54;;;;;;;16.70;12.63;;;4.70;99.90;;;;;;4994860;28;20589;-72
2021/11/29 13:39:23;;;;;;;17.27;11.80;;;4.70;99.90;;;;;;4994351;28;20232;-73
2021/11/29 13:42:18;;;;;;;17.27;11.20;;;4.70;99.90;;;;;;4994158;28;20208;-72
2021/11/29 13:44:47;;;;;;;17.77;10.93;;;4.60;99.90;;;;;;4994710;28;20594;-73
2021/11/29 13:47:15;;;;;;;18.38;11.80;;;4.70;99.90;;;;;;4994391;28;20215;-73
2021/11/29 13:49:46;;;;;;;19.90;12.20;;;4.70;99.90;;;;;;4993135;28;20223;-72
2021/11/29 13:52:19;;;;;;;16.05;11.70;;;4.70;99.90;;;;;;4994618;28;20578;-72
2021/11/29 13:54:52;;;;;;;17.77;12.90;;;4.80;99.90;;;;;;4994442;28;20220;-73
2021/11/29 13:57:40;;;;;;;12.38;10.90;;;4.80;99.90;;;;;;4994299;28;20204;-73
2021/11/29 14:00:22;;;;;;;17.35;12.93;;;4.80;99.90;;;;;;4993872;28;20227;-73
2021/11/29 14:03:03;;;;;;;16.75;15.00;;;4.90;99.90;;;;;;4994197;28;20208;-73
2021/11/29 14:05:30;;;;;;;16.88;12.15;;;4.90;99.90;;;;;;4993341;28;20223;-72
2021/11/29 14:08:02;;;;;;;14.40;12.85;;;4.90;99.90;;;;;;4994100;28;20591;-73
2021/11/29 14:10:31;;;;;;;22.17;17.58;;;4.90;99.90;;;;;;4993736;28;20208;-72
2021/11/29 14:12:59;;;;;;;13.10;11.70;;;4.90;99.90;;;;;;4994314;28;20212;-72
2021/11/29 14:15:30;;;;;;;24.10;19.77;;;4.90;99.90;;;;;;4993824;28;20678;-72
2021/11/29 14:17:57;;;;;;;13.18;11.80;;;4.90;99.90;;;;;;4993922;28;20240;-72
2021/11/29 14:20:26;;;;;;;11.93;10.73;;;4.90;99.90;;;;;;4992755;28;20231;-72
2021/11/29 14:22:55;;;;;;;11.38;9.48;;;4.90;99.90;;;;;;4993947;28;20212;-73
2021/11/29 14:25:23;;;;;;;8.93;8.02;;;4.80;99.90;;;;;;4993796;28;20208;-72
2021/11/29 14:27:50;;;;;;;13.65;8.68;;;4.80;99.90;;;;;;4993560;28;20652;-73
2021/11/29 14:30:17;;;;;;;9.05;7.47;;;4.80;99.90;;;;;;4993808;28;20200;-73
2021/11/29 14:32:44;;;;;;;8.35;7.43;;;4.80;99.90;;;;;;5003402;28;20540;-73
2021/11/29 14:35:12;;;;;;;7.53;6.78;;;4.80;99.90;;;;;;5006859;28;20212;-73
2021/11/29 14:37:40;;;;;;;8.25;7.55;;;4.70;99.90;;;;;;5003920;28;20242;-73
2021/11/29 14:40:10;;;;;;;9.55;7.93;;;4.80;99.90;;;;;;5006804;28;20231;-73
2021/11/29 14:42:41;;;;;;;8.52;7.72;;;4.80;99.90;;;;;;5001309;28;20214;-73
2021/11/29 14:45:10;;;;;;;7.68;6.97;;;4.80;99.90;;;;;;4998236;28;20295;-73
2021/11/29 14:47:40;;;;;;;8.13;7.25;;;4.70;99.90;;;;;;4996643;28;20228;-73
2021/11/29 14:50:12;;;;;;;6.10;5.28;;;4.60;99.90;;;;;;4993962;28;20219;-72
2021/11/29 14:52:42;;;;;;;5.95;5.53;;;4.60;99.90;;;;;;4993244;28;20298;-73
2021/11/29 14:55:12;;;;;;;6.55;5.95;;;4.60;99.90;;;;;;4993252;28;20309;-73
2021/11/29 14:57:45;;;;;;;6.40;5.90;;;4.50;99.90;;;;;;4993138;28;20227;-72
2021/11/29 15:00:15;;;;;;;8.13;7.35;;;4.50;99.90;;;;;;4993147;28;20250;-73
2021/11/29 15:02:42;;;;;;;7.72;6.93;;;4.50;99.90;;;;;;4993631;28;20228;-73
2021/11/29 15:05:10;;;;;;;7.10;6.40;;;4.40;99.90;;;;;;4992639;28;20230;-72
2021/11/29 15:07:37;;;;;;;9.23;6.63;;;4.40;99.90;;;;;;4993205;28;20290;-73
2021/11/29 15:10:07;;;;;;;7.38;6.72;;;4.40;99.90;;;;;;4993146;28;20286;-72
2021/11/29 15:12:37;;;;;;;7.30;6.60;;;4.40;99.90;;;;;;4993281;28;20532;-72
2021/11/29 15:15:21;;;;;;;5.53;5.13;;;4.40;99.90;;;;;;4993057;28;20212;-73
2021/11/29 15:17:49;;;;;;;6.20;5.25;;;4.40;99.90;;;;;;4992837;28;20365;-73
2021/11/29 15:20:17;;;;;;;5.47;4.97;;;4.40;99.90;;;;;;4991903;28;20243;-73
2021/11/29 15:22:50;;;;;;;6.28;4.63;;;4.40;99.90;;;;;;4992958;28;20231;-72
2021/11/29 15:25:17;;;;;;;5.10;4.70;;;4.40;99.90;;;;;;4993475;28;20210;-72
2021/11/29 15:27:45;;;;;;;5.47;4.85;;;4.40;99.90;;;;;;4993776;28;20231;-72
2021/11/29 15:30:24;;;;;;;5.28;4.88;;;4.40;99.90;;;;;;4992554;28;20263;-72
2021/11/29 15:32:52;;;;;;;4.78;4.40;;;4.30;99.90;;;;;;4993137;28;20581;-73
2021/11/29 15:35:21;;;;;;;10.13;7.43;;;4.30;99.90;;;;;;4991776;28;20212;-73
2021/11/29 15:38:07;;;;;;;8.85;6.95;;;4.30;99.90;;;;;;4992584;28;20322;-72
2021/11/29 15:40:38;;;;;;;5.05;4.55;;;4.30;99.90;;;;;;4992025;28;20375;-73
2021/11/29 15:43:09;;;;;;;5.75;4.93;;;4.20;99.90;;;;;;4992894;28;20525;-72
2021/11/29 15:45:42;;;;;;;5.32;4.82;;;4.20;99.90;;;;;;4992062;28;20676;-74
2021/11/29 15:48:09;;;;;;;4.30;4.00;;;4.20;99.90;;;;;;4992716;28;20555;-72
2021/11/29 15:50:35;;;;;;;5.32;4.05;;;4.10;99.90;;;;;;4991109;28;20311;-72
2021/11/29 15:53:03;;;;;;;5.82;5.32;;;4.20;99.90;;;;;;4992394;28;20211;-73
2021/11/29 15:55:30;;;;;;;5.05;4.65;;;4.20;99.90;;;;;;4992141;28;20717;-73
2021/11/29 15:57:57;;;;;;;5.68;5.25;;;4.20;99.90;;;;;;4992108;28;20253;-73
2021/11/29 16:00:23;;;;;;;5.40;4.70;;;4.20;99.90;;;;;;4991611;28;20235;-73
2021/11/29 16:02:52;;;;;;;6.38;5.88;;;4.20;99.90;;;;;;4992429;28;20214;-73
2021/11/29 16:05:19;;;;;;;6.75;6.15;;;4.20;99.90;;;;;;4991063;28;20212;-70
2021/11/29 16:07:45;;;;;;;6.63;5.97;;;4.20;99.90;;;;;;4991742;28;20228;-73
2021/11/29 16:10:12;;;;;;;6.60;6.03;;;4.20;99.90;;;;;;4991915;28;20207;-71
2021/11/29 16:12:39;;;;;;;7.03;6.35;;;4.10;99.90;;;;;;4992420;28;20207;-72
2021/11/29 16:15:07;;;;;;;7.25;5.60;;;4.10;99.90;;;;;;4991802;28;20238;-71
2021/11/29 16:17:34;;;;;;;4.72;4.32;;;4.10;99.90;;;;;;4991604;28;20235;-71
2021/11/29 16:20:02;;;;;;;8.23;6.40;;;4.00;99.90;;;;;;4990653;28;20716;-72
2021/11/29 16:22:29;;;;;;;5.40;4.90;;;4.00;99.90;;;;;;4991480;28;20215;-72
2021/11/29 16:24:56;;;;;;;6.15;5.65;;;4.00;99.90;;;;;;4991704;28;20212;-72
2021/11/29 16:27:23;;;;;;;5.70;5.28;;;4.00;99.90;;;;;;4991749;28;20414;-72
2021/11/29 16:29:49;;;;;;;6.95;6.35;;;3.90;99.90;;;;;;4991400;28;20642;-72
2021/11/29 16:32:16;;;;;;;7.35;6.63;;;3.90;99.90;;;;;;4991694;28;20204;-71
2021/11/29 16:34:43;;;;;;;8.32;7.43;;;3.90;99.90;;;;;;4990719;28;20215;-72
2021/11/29 16:37:11;;;;;;;7.35;6.60;;;3.90;99.90;;;;;;4986514;28;20608;-72
2021/11/29 16:39:38;;;;;;;7.40;6.70;;;3.90;99.90;;;;;;4983458;28;20295;-72
2021/11/29 16:42:04;;;;;;;7.72;7.03;;;3.90;99.90;;;;;;4991540;28;20298;-72
2021/11/29 16:44:32;;;;;;;11.63;7.65;;;3.90;99.90;;;;;;4991482;28;20559;-72
2021/11/29 16:46:59;;;;;;;10.25;7.80;;;3.90;99.90;;;;;;4991528;28;20266;-72
2021/11/29 16:49:26;;;;;;;12.93;8.57;;;3.90;99.90;;;;;;4990770;28;20228;-72
2021/11/29 16:51:53;;;;;;;9.35;7.65;;;3.90;99.90;;;;;;4991746;28;20667;-72
2021/11/29 16:54:21;;;;;;;8.50;7.65;;;3.90;99.90;;;;;;4991819;28;20207;-72
2021/11/29 16:56:48;;;;;;;7.97;7.13;;;3.90;99.90;;;;;;4991203;28;20215;-70
2021/11/29 16:59:16;;;;;;;7.68;5.85;;;3.90;99.90;;;;;;4991327;28;20642;-70
2021/11/29 17:01:43;;;;;;;8.73;6.38;;;3.90;99.90;;;;;;4993398;28;20688;-70
2021/11/29 17:04:10;;;;;;;10.55;7.55;;;3.90;99.90;;;;;;4995078;28;20223;-72
2021/11/29 17:06:36;;;;;;;20.25;11.35;;;3.90;99.90;;;;;;4995805;28;20291;-72
2021/11/29 17:09:03;;;;;;;10.35;8.90;;;3.90;99.90;;;;;;4993068;28;20224;-72
2021/11/29 17:11:32;;;;;;;11.95;9.48;;;3.90;99.90;;;;;;4995343;28;20207;-72
2021/11/29 17:13:58;;;;;;;8.30;7.53;;;3.90;99.90;;;;;;4997243;28;20262;-72
2021/11/29 17:16:25;;;;;;;10.18;8.77;;;3.90;99.90;;;;;;4997434;28;20215;-73
2021/11/29 17:18:52;;;;;;;11.18;9.63;;;3.80;99.90;;;;;;4996507;28;20243;-72
2021/11/29 17:21:18;;;;;;;11.07;9.98;;;3.80;99.90;;;;;;4997053;28;20237;-73
2021/11/29 17:23:45;;;;;;;10.07;8.52;;;3.80;99.90;;;;;;5029723;23;20306;-69
2021/11/29 17:26:12;;;;;;;9.85;8.85;;;3.70;99.90;;;;;;5014320;28;20215;-69
2021/11/29 17:28:40;;;;;;;10.88;8.50;;;3.70;99.90;;;;;;5014151;28;20222;-69
2021/11/29 17:31:07;;;;;;;8.02;7.22;;;3.70;99.90;;;;;;5013772;28;20215;-68
2021/11/29 17:33:33;;;;;;;10.63;9.07;;;3.60;99.90;;;;;;5005113;28;20224;-68
2021/11/29 17:36:02;;;;;;;13.45;10.00;;;3.50;99.90;;;;;;4993462;28;20535;-69
2021/11/29 17:38:29;;;;;;;11.98;9.35;;;3.50;99.90;;;;;;4994566;28;20219;-69
2021/11/29 17:40:56;;;;;;;13.30;10.07;;;3.40;99.90;;;;;;4994201;28;20235;-69
2021/11/29 17:43:23;;;;;;;15.73;11.48;;;3.40;99.90;;;;;;4994953;28;20575;-68
2021/11/29 17:45:51;;;;;;;14.27;9.98;;;3.30;99.90;;;;;;4994255;28;20602;-68
2021/11/29 17:48:23;;;;;;;8.45;6.85;;;3.30;99.90;;;;;;4994730;28;20600;-68
2021/11/29 17:50:50;;;;;;;8.35;6.50;;;3.20;99.90;;;;;;4993358;28;20208;-68
2021/11/29 17:53:16;;;;;;;8.68;7.25;;;3.20;99.90;;;;;;4993983;28;20232;-68
2021/11/29 17:55:43;;;;;;;9.57;8.35;;;3.10;99.90;;;;;;4993855;28;20204;-68